Time;durP1;ratioP1;P1;durP2;ratioP2;P2;SDS_P1;SDS_P2;PMS_P1;PMS_P2;Temp;Humidity;BMP_temperature;BMP_pressure;BME280_temperature;BME280_humidity;BME280_pressure;Samples;Min_cycle;Max_cycle;Signal;HPM_P1;HPM_P2
2021/10/18 00:00:45;;;;;;;14.80;10.10;;;;;;;8.52;84.94;102011.16;2108848;28;20024;-63
2021/10/18 00:01:46;;;;;;;16.87;9.33;;;;;;;8.48;85.49;102011.19;2109159;28;20016;-64
2021/10/18 00:02:46;;;;;;;16.23;9.20;;;;;;;8.45;85.49;102016.44;2108699;28;20027;-64
2021/10/18 00:03:46;;;;;;;13.87;8.90;;;;;;;8.42;86.19;102016.47;2108349;28;20042;-63
2021/10/18 00:04:47;;;;;;;14.40;9.60;;;;;;;8.40;85.44;102013.03;2109246;28;20055;-63
2021/10/18 00:05:47;;;;;;;16.63;8.57;;;;;;;8.40;85.61;102013.03;2109248;28;20016;-64
2021/10/18 00:06:47;;;;;;;13.40;9.00;;;;;;;8.45;85.61;102018.19;2109440;28;20047;-63
2021/10/18 00:07:47;;;;;;;15.80;8.33;;;;;;;8.43;85.58;102022.53;2109353;28;20043;-63
2021/10/18 00:08:48;;;;;;;15.23;10.33;;;;;;;8.39;85.60;102019.13;2108744;28;20051;-64
2021/10/18 00:09:48;;;;;;;16.97;9.40;;;;;;;8.35;85.98;102026.09;2109091;28;20028;-63
2021/10/18 00:10:49;;;;;;;15.90;10.43;;;;;;;8.32;86.05;102025.31;2109305;28;20019;-64
2021/10/18 00:11:49;;;;;;;13.40;9.00;;;;;;;8.25;87.73;102025.38;2109445;28;20027;-63
2021/10/18 00:12:50;;;;;;;12.07;7.77;;;;;;;8.19;87.88;102028.06;2109447;28;20465;-63
2021/10/18 00:13:50;;;;;;;12.82;7.93;;;;;;;8.14;88.94;102032.44;2109378;28;20035;-64
2021/10/18 00:14:50;;;;;;;16.10;9.85;;;;;;;8.09;88.39;102026.47;2109279;28;20032;-63
2021/10/18 00:15:51;;;;;;;20.33;8.53;;;;;;;8.03;88.63;102017.00;2109354;28;20473;-63
2021/10/18 00:16:51;;;;;;;15.53;8.90;;;;;;;7.99;88.38;102023.13;2109137;28;20024;-63
2021/10/18 00:17:52;;;;;;;17.93;9.83;;;;;;;7.97;88.22;102020.53;2108965;28;20266;-63
2021/10/18 00:18:52;;;;;;;15.67;10.10;;;;;;;7.96;88.49;102013.63;2108065;28;20032;-63
2021/10/18 00:19:52;;;;;;;15.83;10.93;;;;;;;7.95;88.76;102016.25;2108131;28;20481;-64
2021/10/18 00:20:53;;;;;;;15.47;10.60;;;;;;;7.92;88.54;102013.69;2108601;28;20024;-64
2021/10/18 00:21:53;;;;;;;19.00;10.93;;;;;;;7.90;88.35;102008.50;2108551;28;20103;-64
2021/10/18 00:22:54;;;;;;;14.70;10.40;;;;;;;7.90;88.32;102013.69;2108719;28;20028;-62
2021/10/18 00:23:54;;;;;;;16.27;10.65;;;;;;;7.87;88.73;102018.91;2108644;28;20704;-63
2021/10/18 00:24:54;;;;;;;19.43;10.30;;;;;;;7.85;88.61;102015.50;2108927;28;20031;-63
2021/10/18 00:25:55;;;;;;;21.07;11.63;;;;;;;7.84;88.68;102016.38;2108134;28;20024;-63
2021/10/18 00:26:55;;;;;;;18.23;10.93;;;;;;;7.84;89.08;102025.03;2108387;28;20027;-64
2021/10/18 00:27:55;;;;;;;17.50;10.93;;;;;;;7.83;88.92;102018.09;2108863;28;20035;-63
2021/10/18 00:28:56;;;;;;;19.03;10.47;;;;;;;7.77;88.87;102012.97;2108327;28;20031;-63
2021/10/18 00:29:56;;;;;;;18.40;10.90;;;;;;;7.75;89.26;102016.47;2108098;28;20104;-64
2021/10/18 00:30:56;;;;;;;19.30;9.97;;;;;;;7.72;89.51;102018.25;2108753;28;20480;-64
2021/10/18 00:31:57;;;;;;;17.90;10.20;;;;;;;7.72;89.32;102020.84;2108845;28;20451;-63
2021/10/18 00:32:57;;;;;;;14.10;10.53;;;;;;;7.73;89.43;102014.75;2108920;28;20073;-63
2021/10/18 00:33:57;;;;;;;14.27;9.97;;;;;;;7.75;89.00;102019.06;2108597;28;20047;-63
2021/10/18 00:34:57;;;;;;;13.87;9.43;;;;;;;7.75;89.47;102025.13;2100127;28;20034;-64
2021/10/18 00:35:58;;;;;;;17.27;9.73;;;;;;;7.73;89.42;102014.75;2108668;28;20050;-64
2021/10/18 00:36:58;;;;;;;20.13;9.60;;;;;;;7.72;89.73;102031.25;2109172;28;20103;-63
2021/10/18 00:37:58;;;;;;;13.90;9.47;;;;;;;7.74;89.23;102028.63;2109075;28;20024;-63
2021/10/18 00:38:58;;;;;;;18.23;9.60;;;;;;;7.72;89.77;102023.44;2109349;28;20497;-64
2021/10/18 00:39:59;;;;;;;21.83;10.67;;;;;;;7.73;89.26;102024.28;2108916;28;20059;-64
2021/10/18 00:40:59;;;;;;;15.97;10.17;;;;;;;7.72;89.67;102023.44;2109192;28;20028;-63
2021/10/18 00:42:00;;;;;;;17.80;11.30;;;;;;;7.70;89.73;102017.38;2109326;28;20059;-63
2021/10/18 00:43:01;;;;;;;17.87;9.83;;;;;;;7.69;89.59;102026.06;2109079;28;20434;-63
2021/10/18 00:44:01;;;;;;;19.40;10.07;;;;;;;7.67;89.63;102022.63;2109344;28;20016;-63
2021/10/18 00:45:02;;;;;;;16.23;10.10;;;;;;;7.66;89.94;102020.06;2109062;28;20032;-63
2021/10/18 00:46:02;;;;;;;18.20;10.88;;;;;;;7.65;90.01;102024.38;2109251;28;20082;-64
2021/10/18 00:47:03;;;;;;;19.13;10.70;;;;;;;7.64;90.24;102027.88;2109295;28;20028;-63
2021/10/18 00:48:04;;;;;;;18.77;11.20;;;;;;;7.64;90.04;102022.66;2109003;28;20020;-63
2021/10/18 00:49:04;;;;;;;14.57;8.95;;;;;;;7.66;90.17;102026.09;2108821;28;20076;-63
2021/10/18 00:50:06;;;;;;;17.43;9.97;;;;;;;7.67;90.04;102022.63;2109267;28;20481;-63
2021/10/18 00:51:06;;;;;;;20.15;11.65;;;;;;;7.70;89.92;102032.13;2108015;28;20024;-63
2021/10/18 00:52:07;;;;;;;16.73;11.13;;;;;;;7.70;90.20;102027.78;2099999;28;20159;-63
2021/10/18 00:53:08;;;;;;;16.67;10.67;;;;;;;7.73;90.07;102032.94;2107877;28;20027;-63
2021/10/18 00:54:08;;;;;;;19.98;10.77;;;;;;;7.72;89.81;102033.84;2108261;28;20024;-63
2021/10/18 00:55:09;;;;;;;17.30;10.43;;;;;;;7.76;89.96;102031.22;2108691;28;20026;-63
2021/10/18 00:56:10;;;;;;;18.15;11.23;;;;;;;7.79;89.62;102036.34;2107996;28;20519;-63
2021/10/18 00:57:11;;;;;;;18.85;10.65;;;;;;;7.80;90.02;102038.09;2108526;28;20032;-63
2021/10/18 00:58:11;;;;;;;17.67;9.57;;;;;;;7.80;90.11;102035.50;2109278;28;20036;-63
2021/10/18 00:59:12;;;;;;;16.10;8.97;;;;;;;7.79;90.09;102036.34;2109074;28;20031;-63
2021/10/18 01:00:13;;;;;;;16.92;10.55;;;;;;;7.79;90.11;102036.34;2107788;28;20032;-63
2021/10/18 01:01:14;;;;;;;14.32;9.82;;;;;;;7.80;90.28;102044.13;2107422;28;20024;-63
2021/10/18 01:02:14;;;;;;;14.07;9.73;;;;;;;7.82;89.88;102046.72;2107541;28;20102;-63
2021/10/18 01:03:15;;;;;;;13.63;9.40;;;;;;;7.82;89.77;102041.50;2106869;28;20034;-64
2021/10/18 01:04:16;;;;;;;17.88;10.15;;;;;;;7.86;89.73;102043.19;2106820;28;20360;-63
2021/10/18 01:05:16;;;;;;;15.68;9.63;;;;;;;7.86;90.02;102048.41;2107012;28;20569;-63
2021/10/18 01:06:16;;;;;;;13.65;8.80;;;;;;;7.89;89.54;102043.16;2107063;28;20020;-63
2021/10/18 01:07:17;;;;;;;15.97;10.83;;;;;;;7.88;89.53;102046.66;2107940;28;20091;-63
2021/10/18 01:08:18;;;;;;;18.60;9.82;;;;;;;7.90;90.09;102042.28;2107625;28;20059;-64
2021/10/18 01:09:18;;;;;;;19.40;10.00;;;;;;;7.91;89.57;102045.75;2107934;28;20545;-64
2021/10/18 01:10:18;;;;;;;18.20;9.93;;;;;;;7.92;89.79;102048.34;2107512;28;20115;-63
2021/10/18 01:11:19;;;;;;;14.73;8.77;;;;;;;7.93;90.08;102044.84;2107877;28;20058;-62
2021/10/18 01:12:19;;;;;;;17.35;9.45;;;;;;;7.93;89.89;102044.84;2107919;28;20031;-63
2021/10/18 01:13:20;;;;;;;20.57;10.77;;;;;;;7.94;90.09;102043.97;2107567;28;20020;-63
2021/10/18 01:14:20;;;;;;;13.97;9.27;;;;;;;7.94;90.20;102046.56;2107153;28;20443;-63
2021/10/18 01:15:20;;;;;;;18.47;10.27;;;;;;;7.93;89.57;102047.44;2107287;28;20100;-63
2021/10/18 01:16:21;;;;;;;20.63;11.27;;;;;;;7.93;90.07;102044.84;2107750;28;20036;-63
2021/10/18 01:17:21;;;;;;;17.23;10.60;;;;;;;7.93;89.49;102046.59;2107716;28;20031;-63
2021/10/18 01:18:21;;;;;;;16.47;9.63;;;;;;;7.92;89.69;102053.53;2107797;28;20016;-63
2021/10/18 01:19:22;;;;;;;17.17;10.20;;;;;;;7.90;89.61;102049.25;2107766;28;20500;-63
2021/10/18 01:20:34;;;;;;;14.40;9.67;;;;;;;7.90;89.36;102055.28;2107718;28;20079;-63
2021/10/18 01:21:34;;;;;;;16.17;9.25;;;;;;;7.89;89.50;102050.97;2107881;28;20086;-62
2021/10/18 01:22:34;;;;;;;15.43;9.83;;;;;;;7.88;90.42;102049.25;2107162;28;20036;-63
2021/10/18 01:23:35;;;;;;;17.50;10.67;;;;;;;7.89;90.38;102050.09;2107243;28;20027;-64
2021/10/18 01:24:36;;;;;;;20.73;9.60;;;;;;;7.90;90.74;102044.03;2107729;28;20023;-63
2021/10/18 01:25:38;;;;;;;15.60;9.52;;;;;;;7.92;91.91;102053.53;2107406;28;20032;-64
2021/10/18 01:26:39;;;;;;;13.73;8.88;;;;;;;7.91;92.46;102045.75;2107480;28;20024;-63
2021/10/18 01:27:39;;;;;;;14.05;9.68;;;;;;;7.89;92.45;102048.38;2106997;28;20056;-64
2021/10/18 01:28:39;;;;;;;14.13;9.47;;;;;;;7.86;92.62;102038.00;2106845;28;20012;-64
2021/10/18 01:29:40;;;;;;;14.50;8.97;;;;;;;7.83;92.34;102038.91;2107142;28;20490;-64
2021/10/18 01:30:40;;;;;;;18.40;10.65;;;;;;;7.81;92.01;102039.81;2107552;28;20069;-63
2021/10/18 01:31:41;;;;;;;18.73;11.50;;;;;;;7.75;92.14;102037.25;2107769;28;20016;-64
2021/10/18 01:32:42;;;;;;;14.63;10.13;;;;;;;7.69;92.35;102035.59;2107573;28;20047;-64
2021/10/18 01:33:46;;;;;;;18.63;10.73;;;;;;;7.66;92.63;102033.06;2107428;28;20028;-63
2021/10/18 01:34:47;;;;;;;16.27;10.25;;;;;;;7.63;92.46;102036.53;2107691;28;20020;-69
2021/10/18 01:35:47;;;;;;;21.60;10.97;;;;;;;7.58;92.90;102031.41;2107504;28;20400;-68
2021/10/18 01:36:47;;;;;;;16.83;10.53;;;;;;;7.56;92.68;102034.88;2107448;28;20165;-68
2021/10/18 01:37:51;;;;;;;16.10;10.43;;;;;;;7.53;93.11;102046.16;2107382;28;20069;-68
2021/10/18 01:38:52;;;;;;;17.00;11.07;;;;;;;7.47;93.47;102035.84;2107568;28;20293;-68
2021/10/18 01:39:52;;;;;;;18.60;10.63;;;;;;;7.44;93.44;102038.47;2107365;28;20024;-67
2021/10/18 01:40:52;;;;;;;18.80;10.27;;;;;;;7.42;93.80;102038.47;2107149;28;20093;-68
2021/10/18 01:41:52;;;;;;;17.13;11.57;;;;;;;7.40;93.86;102040.25;2107333;28;20023;-67
2021/10/18 01:42:53;;;;;;;15.77;10.23;;;;;;;7.39;93.61;102038.50;2107139;28;20457;-67
2021/10/18 01:43:53;;;;;;;18.20;10.27;;;;;;;7.40;93.82;102042.84;2107416;28;20073;-69
2021/10/18 01:44:54;;;;;;;20.33;9.83;;;;;;;7.41;93.99;102044.53;2107441;28;20028;-69
2021/10/18 01:45:54;;;;;;;13.80;10.33;;;;;;;7.42;93.80;102043.66;2106339;28;20035;-67
2021/10/18 01:46:55;;;;;;;14.43;10.70;;;;;;;7.43;93.90;102045.38;2106631;28;20062;-68
2021/10/18 01:47:55;;;;;;;16.50;12.20;;;;;;;7.44;94.09;102046.25;2106895;28;20051;-68
2021/10/18 01:48:56;;;;;;;18.00;11.23;;;;;;;7.46;93.59;102034.13;2106753;28;20110;-69
2021/10/18 01:49:56;;;;;;;22.23;10.93;;;;;;;7.47;94.01;102044.47;2107115;28;20027;-68
2021/10/18 01:50:57;;;;;;;14.90;10.23;;;;;;;7.49;93.41;102038.41;2106591;28;20032;-67
2021/10/18 01:51:57;;;;;;;16.17;10.10;;;;;;;7.47;93.57;102041.88;2106455;28;20035;-68
2021/10/18 01:52:58;;;;;;;15.27;9.73;;;;;;;7.46;93.50;102042.75;2106729;28;20024;-69
2021/10/18 01:53:58;;;;;;;14.70;10.33;;;;;;;7.47;93.40;102047.06;2107350;28;20107;-68
2021/10/18 01:54:58;;;;;;;20.87;10.90;;;;;;;7.46;93.93;102050.53;2107396;28;20031;-68
2021/10/18 01:55:59;;;;;;;16.90;10.00;;;;;;;7.47;93.99;102047.06;2107305;28;20036;-68
2021/10/18 01:56:59;;;;;;;16.07;9.87;;;;;;;7.49;94.06;102048.81;2107495;28;20054;-67
2021/10/18 01:57:59;;;;;;;14.17;9.83;;;;;;;7.47;94.23;102041.03;2107445;28;20058;-68
2021/10/18 01:59:00;;;;;;;19.00;10.30;;;;;;;7.45;94.39;102043.63;2107518;28;20024;-68
2021/10/18 02:00:01;;;;;;;16.33;9.95;;;;;;;7.45;94.24;102038.44;2107195;28;20024;-68
2021/10/18 02:01:03;;;;;;;17.60;11.67;;;;;;;7.46;93.82;102039.31;2106209;28;20032;-68
2021/10/18 02:02:03;;;;;;;15.35;10.70;;;;;;;7.48;93.99;102042.75;2106747;28;20791;-69
2021/10/18 02:03:04;;;;;;;18.30;10.47;;;;;;;7.51;93.54;102036.66;2107450;28;20027;-68
2021/10/18 02:04:04;;;;;;;15.77;8.97;;;;;;;7.53;93.29;102045.31;2107487;28;20020;-69
2021/10/18 02:05:05;;;;;;;15.83;10.37;;;;;;;7.54;93.44;102041.81;2107463;28;20498;-68
2021/10/18 02:06:09;;;;;;;15.40;9.15;;;;;;;7.54;93.18;102036.63;2107504;28;20028;-68
2021/10/18 02:07:09;;;;;;;15.80;10.00;;;;;;;7.55;93.29;102035.75;2107563;28;20039;-69
2021/10/18 02:08:09;;;;;;;14.57;9.60;;;;;;;7.55;93.39;102035.75;2107305;28;20489;-68
2021/10/18 02:09:09;;;;;;;15.37;10.73;;;;;;;7.55;93.34;102035.75;2107275;28;20380;-68
2021/10/18 02:10:11;;;;;;;16.00;9.93;;;;;;;7.53;93.93;102033.16;2107272;28;20073;-68
2021/10/18 02:11:12;;;;;;;;;;;;;;;7.54;93.43;102032.31;2107916;28;20044;-67
2021/10/18 02:12:12;;;;;;;17.48;10.27;;;;;;;7.53;93.92;102029.72;2106560;28;19919;-68
2021/10/18 02:13:13;;;;;;;16.73;10.73;;;;;;;7.50;93.82;102029.75;2106940;28;20036;-68
2021/10/18 02:14:13;;;;;;;16.90;11.23;;;;;;;7.50;93.13;102027.16;2107148;28;20075;-68
2021/10/18 02:15:14;;;;;;;18.23;10.73;;;;;;;7.51;93.56;102019.34;2106687;28;20410;-68
2021/10/18 02:16:14;;;;;;;17.27;10.57;;;;;;;7.50;93.46;102028.03;2106619;28;20027;-68
2021/10/18 02:17:14;;;;;;;18.03;11.23;;;;;;;7.50;93.88;102024.53;2107140;28;20497;-67
2021/10/18 02:18:15;;;;;;;17.80;10.27;;;;;;;7.50;93.52;102019.34;2107513;28;20028;-69
2021/10/18 02:19:15;;;;;;;17.40;10.40;;;;;;;7.51;93.42;102010.69;2107598;28;20023;-69
2021/10/18 02:20:16;;;;;;;16.37;10.73;;;;;;;7.49;93.54;102017.63;2107685;28;20024;-68
2021/10/18 02:21:17;;;;;;;18.13;10.75;;;;;;;7.46;93.06;102024.56;2107676;28;20031;-68
2021/10/18 02:22:17;;;;;;;15.00;10.50;;;;;;;7.42;93.80;102017.69;2107564;28;20035;-67
2021/10/18 02:23:17;;;;;;;19.67;11.90;;;;;;;7.38;94.17;102015.13;2106647;28;20027;-67
2021/10/18 02:24:18;;;;;;;16.93;11.73;;;;;;;7.33;94.08;102010.00;2106759;28;20401;-68
2021/10/18 02:25:18;;;;;;;16.30;10.23;;;;;;;7.31;94.53;102014.34;2106421;28;20617;-68
2021/10/18 02:26:18;;;;;;;17.17;10.73;;;;;;;7.27;94.41;102010.94;2098049;28;20024;-69
2021/10/18 02:27:18;;;;;;;18.70;11.13;;;;;;;7.24;94.17;102012.66;2106435;28;20431;-69
2021/10/18 02:28:19;;;;;;;14.70;10.40;;;;;;;7.20;94.54;102011.84;2107326;28;20032;-68
2021/10/18 02:29:19;;;;;;;16.37;10.83;;;;;;;7.16;95.06;102011.03;2107343;28;20028;-69
2021/10/18 02:30:19;;;;;;;18.67;10.93;;;;;;;7.13;95.04;102013.66;2106834;28;20103;-68
2021/10/18 02:31:20;;;;;;;19.10;13.60;;;;;;;7.08;95.14;102007.63;2106590;28;20066;-68
2021/10/18 02:32:20;;;;;;;17.47;11.63;;;;;;;7.02;95.38;102008.53;2106566;28;20039;-69
2021/10/18 02:33:20;;;;;;;18.50;12.20;;;;;;;6.97;95.73;102009.47;2107276;28;20024;-68
2021/10/18 02:34:21;;;;;;;19.17;10.97;;;;;;;6.93;95.64;102013.81;2107155;28;20028;-69
2021/10/18 02:35:21;;;;;;;18.27;12.15;;;;;;;6.89;95.93;102002.63;2106443;28;20059;-68
2021/10/18 02:36:22;;;;;;;20.00;12.17;;;;;;;6.87;96.28;102006.94;2107282;28;20103;-68
2021/10/18 02:37:23;;;;;;;15.80;10.70;;;;;;;6.89;96.20;102007.81;2106722;28;20020;-68
2021/10/18 02:38:23;;;;;;;20.27;10.90;;;;;;;6.87;96.18;102008.69;2106955;28;20028;-68
2021/10/18 02:39:23;;;;;;;17.43;9.87;;;;;;;6.81;96.40;102012.19;2107189;28;20028;-69
2021/10/18 02:40:24;;;;;;;17.30;11.13;;;;;;;6.76;96.05;102008.75;2107255;28;20028;-67
2021/10/18 02:41:24;;;;;;;20.43;11.97;;;;;;;6.70;95.99;102007.94;2107098;28;20503;-68
2021/10/18 02:42:24;;;;;;;21.40;10.90;;;;;;;6.65;96.22;102007.13;2106889;28;20397;-67
2021/10/18 02:43:25;;;;;;;20.83;10.83;;;;;;;6.62;96.40;102007.13;2106346;28;20058;-68
2021/10/18 02:44:25;;;;;;;20.23;10.80;;;;;;;6.60;96.79;102002.84;2106514;28;20515;-68
2021/10/18 02:45:25;;;;;;;14.77;10.67;;;;;;;6.55;96.53;102008.03;2107063;28;20036;-67
2021/10/18 02:46:26;;;;;;;18.43;11.40;;;;;;;6.52;96.94;102008.06;2107211;28;20376;-67
2021/10/18 02:47:26;;;;;;;18.00;10.23;;;;;;;6.51;96.96;101995.97;2107168;28;20031;-69
2021/10/18 02:48:26;;;;;;;19.17;10.47;;;;;;;6.52;97.48;102006.34;2107127;28;20050;-67
2021/10/18 02:49:27;;;;;;;18.00;11.60;;;;;;;6.49;97.17;102008.06;2107047;28;20504;-67
2021/10/18 02:50:27;;;;;;;19.60;12.77;;;;;;;6.47;97.78;102009.84;2107124;28;20032;-67
2021/10/18 02:51:27;;;;;;;16.67;11.20;;;;;;;6.43;97.58;102003.78;2106074;28;20086;-67
2021/10/18 02:52:27;;;;;;;18.23;11.53;;;;;;;6.39;97.67;102002.09;2106413;28;20440;-68
2021/10/18 02:53:28;;;;;;;18.13;11.10;;;;;;;6.37;98.29;102004.69;2106764;28;20026;-68
2021/10/18 02:54:28;;;;;;;18.87;10.60;;;;;;;6.36;98.11;102004.72;2107159;28;20031;-68
2021/10/18 02:55:28;;;;;;;16.00;8.87;;;;;;;6.33;98.23;102010.75;2106923;28;20020;-67
2021/10/18 02:56:28;;;;;;;19.70;11.80;;;;;;;6.33;97.95;102002.97;2106474;28;20119;-69
2021/10/18 02:57:29;;;;;;;19.77;11.60;;;;;;;6.34;98.19;102004.72;2106291;28;20038;-67
2021/10/18 02:58:29;;;;;;;19.40;10.80;;;;;;;6.34;98.37;102009.91;2107014;28;20036;-68
2021/10/18 02:59:29;;;;;;;20.67;12.30;;;;;;;6.33;97.93;102007.31;2107055;28;20060;-68
2021/10/18 03:00:30;;;;;;;19.17;11.13;;;;;;;6.31;97.66;102007.34;2106741;28;20567;-67
2021/10/18 03:01:30;;;;;;;22.63;10.43;;;;;;;6.28;98.22;102010.81;2106939;28;20039;-67
2021/10/18 03:02:31;;;;;;;21.90;11.30;;;;;;;6.25;97.87;102009.94;2107062;28;20491;-68
2021/10/18 03:03:31;;;;;;;19.17;10.82;;;;;;;6.25;97.99;102009.94;2106351;28;20059;-67
2021/10/18 03:04:31;;;;;;;15.73;11.20;;;;;;;6.24;97.90;102013.41;2106517;28;20036;-67
2021/10/18 03:05:32;;;;;;;20.20;10.60;;;;;;;6.24;98.72;102013.41;2106850;28;20024;-67
2021/10/18 03:06:32;;;;;;;18.00;11.65;;;;;;;6.22;98.33;102007.41;2106986;28;20444;-67
2021/10/18 03:07:33;;;;;;;15.57;11.20;;;;;;;6.21;98.51;102003.94;2106527;28;20073;-69
2021/10/18 03:08:33;;;;;;;16.63;11.07;;;;;;;6.20;98.49;102003.94;2107084;28;20433;-69
2021/10/18 03:09:33;;;;;;;16.50;10.37;;;;;;;6.21;98.67;101996.16;2107019;28;20376;-68
2021/10/18 03:10:34;;;;;;;16.70;11.00;;;;;;;6.23;98.61;101999.56;2107335;28;20468;-68
2021/10/18 03:11:35;;;;;;;17.23;9.82;;;;;;;6.21;98.57;101990.09;2107477;28;20065;-68
2021/10/18 03:12:35;;;;;;;22.03;12.50;;;;;;;6.19;98.74;101984.91;2107614;28;20089;-68
2021/10/18 03:13:35;;;;;;;17.93;11.83;;;;;;;6.15;98.20;101984.09;2107635;28;20071;-69
2021/10/18 03:14:37;;;;;;;18.97;10.77;;;;;;;6.11;98.37;101978.91;2107228;28;20032;-68
2021/10/18 03:15:37;;;;;;;;;;;;;;;6.10;98.19;101983.25;2107205;28;20020;-69
2021/10/18 03:16:37;;;;;;;14.63;9.80;;;;;;;6.04;98.62;101986.75;2106874;28;19908;-68
2021/10/18 03:17:37;;;;;;;17.50;11.43;;;;;;;6.00;98.37;101981.53;2107121;28;20020;-68
2021/10/18 03:18:38;;;;;;;20.80;10.17;;;;;;;5.95;98.79;101981.53;2107442;28;20024;-68
2021/10/18 03:19:38;;;;;;;19.40;11.17;;;;;;;5.93;98.42;101978.97;2107179;28;20024;-68
2021/10/18 03:20:38;;;;;;;19.13;11.67;;;;;;;5.93;98.54;101980.72;2105933;28;20022;-69
2021/10/18 03:21:38;;;;;;;18.50;11.33;;;;;;;5.93;98.74;101983.31;2106414;28;20117;-68
2021/10/18 03:22:39;;;;;;;22.50;11.43;;;;;;;5.93;98.99;101978.13;2106955;28;20028;-66
2021/10/18 03:23:40;;;;;;;21.83;11.20;;;;;;;5.93;99.33;101978.97;2106481;28;20047;-68
2021/10/18 03:24:40;;;;;;;19.17;11.40;;;;;;;5.98;99.55;101981.53;2106836;28;20024;-67
2021/10/18 03:25:40;;;;;;;19.67;11.37;;;;;;;6.01;99.23;101975.47;2106925;28;20039;-68
2021/10/18 03:26:40;;;;;;;18.07;11.30;;;;;;;6.02;99.35;101982.41;2107022;28;20490;-68
2021/10/18 03:27:41;;;;;;;20.03;11.87;;;;;;;6.03;99.91;101981.53;2106973;28;20020;-69
2021/10/18 03:28:43;;;;;;;21.63;12.07;;;;;;;6.02;99.59;101985.00;2106940;28;20054;-68
2021/10/18 03:29:44;;;;;;;21.10;11.80;;;;;;;6.02;99.14;101980.66;2106879;28;20392;-67
2021/10/18 03:30:44;;;;;;;19.50;10.77;;;;;;;6.03;99.92;101981.53;2106840;28;20024;-67
2021/10/18 03:31:44;;;;;;;23.70;11.83;;;;;;;6.03;99.66;101989.31;2106908;28;20114;-68
2021/10/18 03:32:44;;;;;;;18.83;10.47;;;;;;;6.03;99.76;101985.00;2106851;28;20047;-67
2021/10/18 03:33:45;;;;;;;18.90;12.00;;;;;;;6.02;99.88;101993.63;2106793;28;20020;-68
2021/10/18 03:34:45;;;;;;;21.70;12.50;;;;;;;6.03;99.79;101991.91;2106801;28;20104;-68
2021/10/18 03:35:45;;;;;;;21.47;11.30;;;;;;;6.03;100.00;101990.19;2106690;28;20036;-68
2021/10/18 03:36:46;;;;;;;25.07;12.63;;;;;;;6.03;99.96;101989.31;2106843;28;20469;-68
2021/10/18 03:37:46;;;;;;;24.33;12.07;;;;;;;6.02;99.32;101987.59;2106797;28;20050;-68
2021/10/18 03:38:46;;;;;;;17.30;10.80;;;;;;;6.04;99.59;101997.09;2106154;28;20032;-69
2021/10/18 03:39:47;;;;;;;19.85;12.77;;;;;;;6.04;99.51;101985.88;2106212;28;20023;-69
2021/10/18 03:40:47;;;;;;;26.27;12.77;;;;;;;6.05;99.87;101983.28;2106849;28;20020;-68
2021/10/18 03:41:47;;;;;;;23.07;11.20;;;;;;;6.09;99.25;101984.09;2106740;28;20055;-69
2021/10/18 03:42:48;;;;;;;19.83;12.03;;;;;;;6.09;99.53;101984.09;2106784;28;20020;-69
2021/10/18 03:43:48;;;;;;;19.73;10.73;;;;;;;6.06;99.19;101986.75;2106791;28;20028;-67
2021/10/18 03:44:48;;;;;;;24.10;11.67;;;;;;;6.03;99.01;101991.91;2106918;28;20123;-68
2021/10/18 03:45:49;;;;;;;20.63;12.20;;;;;;;5.99;99.22;101998.81;2106441;28;20032;-68
2021/10/18 03:46:49;;;;;;;22.00;12.40;;;;;;;5.93;99.38;101989.31;2106660;28;20084;-68
2021/10/18 03:47:50;;;;;;;22.07;12.87;;;;;;;5.92;98.96;102000.56;2106087;28;20311;-68
2021/10/18 03:48:50;;;;;;;23.80;13.23;;;;;;;5.93;99.00;102004.88;2106238;28;20024;-68
2021/10/18 03:49:50;;;;;;;22.60;12.27;;;;;;;5.97;99.35;102004.88;2106783;28;20100;-68
2021/10/18 03:50:50;;;;;;;30.07;13.17;;;;;;;5.99;99.52;102006.59;2106834;28;20428;-68
2021/10/18 03:51:51;;;;;;;25.37;13.77;;;;;;;6.01;99.70;102004.84;2106838;28;20039;-68
2021/10/18 03:52:51;;;;;;;22.53;12.20;;;;;;;5.98;99.55;102015.22;2106813;28;20059;-68
2021/10/18 03:53:51;;;;;;;18.97;11.70;;;;;;;5.95;99.43;102011.81;2106608;28;20103;-68
2021/10/18 03:54:52;;;;;;;23.47;12.17;;;;;;;5.95;99.14;102004.88;2106151;28;20032;-68
2021/10/18 03:55:52;;;;;;;24.57;12.67;;;;;;;5.95;99.31;102006.63;2106142;28;20024;-69
2021/10/18 03:56:52;;;;;;;27.67;14.37;;;;;;;5.95;99.69;102006.63;2106804;28;20040;-68
2021/10/18 03:57:53;;;;;;;22.10;12.20;;;;;;;5.96;99.70;102003.16;2106010;28;20028;-67
2021/10/18 03:58:53;;;;;;;23.60;13.00;;;;;;;5.95;99.56;102009.22;2106214;28;20031;-69
2021/10/18 03:59:53;;;;;;;25.13;13.20;;;;;;;5.93;99.05;102007.47;2106771;28;20039;-68
2021/10/18 04:00:54;;;;;;;21.93;12.83;;;;;;;5.93;99.78;102004.88;2106732;28;20024;-68
2021/10/18 04:01:54;;;;;;;25.77;13.47;;;;;;;5.93;99.27;102010.06;2106744;28;20028;-68
2021/10/18 04:02:54;;;;;;;24.40;13.27;;;;;;;5.93;99.55;102015.25;2106120;28;20031;-67
2021/10/18 04:03:55;;;;;;;31.70;13.43;;;;;;;5.92;99.22;102015.28;2106190;28;20464;-67
2021/10/18 04:04:55;;;;;;;28.97;13.30;;;;;;;5.93;99.51;102012.66;2106599;28;20039;-68
2021/10/18 04:05:55;;;;;;;19.10;11.80;;;;;;;5.95;99.27;102006.63;2106581;28;20278;-68
2021/10/18 04:06:55;;;;;;;19.20;11.57;;;;;;;5.97;99.68;102016.09;2106050;28;20106;-68
2021/10/18 04:07:56;;;;;;;23.70;14.37;;;;;;;5.98;99.26;102016.94;2106104;28;20058;-68
2021/10/18 04:08:56;;;;;;;28.47;16.30;;;;;;;6.02;99.62;102013.50;2106768;28;20024;-67
2021/10/18 04:09:57;;;;;;;26.55;14.07;;;;;;;6.04;99.18;102012.66;2106761;28;20051;-68
2021/10/18 04:10:58;;;;;;;25.50;13.03;;;;;;;6.03;99.44;102015.22;2106679;28;20097;-68
2021/10/18 04:11:59;;;;;;;;;;;;;;;6.05;99.28;102013.50;2107259;28;20036;-67
2021/10/18 04:13:02;;;;;;;26.48;14.07;;;;;;;6.06;99.36;102015.25;2106744;28;19916;-69
2021/10/18 04:14:04;;;;;;;20.67;12.63;;;;;;;6.06;99.08;102012.66;2106035;28;20046;-69
2021/10/18 04:15:05;;;;;;;23.50;12.95;;;;;;;6.05;99.64;102013.50;2097739;28;20032;-68
2021/10/18 04:16:06;;;;;;;25.70;14.65;;;;;;;6.04;98.78;102016.97;2106049;28;20520;-69
2021/10/18 04:17:06;;;;;;;26.30;13.83;;;;;;;6.03;99.49;102020.41;2106034;28;20062;-68
2021/10/18 04:18:06;;;;;;;24.53;14.03;;;;;;;6.01;99.10;102017.81;2106031;28;20329;-67
2021/10/18 04:19:06;;;;;;;27.37;13.43;;;;;;;6.01;99.12;102016.94;2106633;28;20388;-68
2021/10/18 04:20:07;;;;;;;25.67;15.77;;;;;;;6.00;99.50;102018.69;2106688;28;20024;-69
2021/10/18 04:21:07;;;;;;;26.33;13.33;;;;;;;6.00;99.14;102015.22;2106759;28;20467;-69
2021/10/18 04:22:07;;;;;;;24.30;13.57;;;;;;;5.97;99.03;102016.09;2106077;28;20497;-69
2021/10/18 04:23:07;;;;;;;24.50;13.87;;;;;;;5.96;98.73;102013.53;2106059;28;20053;-68
2021/10/18 04:24:08;;;;;;;25.73;14.30;;;;;;;5.92;98.92;102021.28;2105847;28;20024;-68
2021/10/18 04:25:08;;;;;;;25.17;14.60;;;;;;;5.91;98.75;102017.00;2105953;28;20032;-68
2021/10/18 04:26:09;;;;;;;24.77;14.30;;;;;;;5.91;99.43;102019.59;2106579;28;20050;-68
2021/10/18 04:27:09;;;;;;;26.43;12.83;;;;;;;5.93;98.93;102015.25;2106706;28;20028;-68
2021/10/18 04:28:09;;;;;;;24.30;13.50;;;;;;;5.93;99.24;102010.06;2106581;28;20024;-69
2021/10/18 04:29:10;;;;;;;24.60;12.55;;;;;;;5.89;99.39;102016.13;2106654;28;20039;-69
2021/10/18 04:30:11;;;;;;;24.70;13.47;;;;;;;5.84;99.32;102011.81;2106519;28;20473;-67
2021/10/18 04:31:11;;;;;;;25.98;14.13;;;;;;;5.77;98.66;102013.56;2106614;28;20036;-67
2021/10/18 04:32:12;;;;;;;25.67;13.77;;;;;;;5.71;98.68;102008.44;2105952;28;20024;-67
2021/10/18 04:33:12;;;;;;;23.70;12.63;;;;;;;5.66;99.12;102006.72;2106099;28;20453;-67
2021/10/18 04:34:12;;;;;;;25.50;13.77;;;;;;;5.63;99.44;102009.31;2106596;28;20099;-67
2021/10/18 04:35:13;;;;;;;25.50;12.90;;;;;;;5.60;99.45;102006.72;2106538;28;20419;-66
2021/10/18 04:36:13;;;;;;;24.93;13.07;;;;;;;5.58;99.07;102008.44;2107831;28;20032;-68
2021/10/18 04:37:13;;;;;;;19.47;12.10;;;;;;;5.56;99.16;102002.44;2108245;28;20024;-67
2021/10/18 04:38:14;;;;;;;22.67;13.53;;;;;;;5.53;99.21;102005.88;2108214;28;20392;-68
2021/10/18 04:39:14;;;;;;;22.90;12.53;;;;;;;5.50;99.01;102011.06;2108217;28;20072;-69